Time;durP1;ratioP1;P1;durP2;ratioP2;P2;SDS_P1;SDS_P2;PMS_P1;PMS_P2;Temp;Humidity;BMP_temperature;BMP_pressure;BME280_temperature;BME280_humidity;BME280_pressure;Samples;Min_cycle;Max_cycle;Signal;HPM_P1;HPM_P2
2022/10/31 00:01:27;;;;;;;1.83;1.63;;;11.60;99.90;;;;;;5111839;28;20451;-70
2022/10/31 00:03:55;;;;;;;2.33;1.90;;;11.60;99.90;;;;;;5112028;28;20466;-70
2022/10/31 00:06:22;;;;;;;4.00;2.30;;;11.60;99.90;;;;;;5111874;28;20458;-69
2022/10/31 00:08:53;;;;;;;2.43;1.73;;;11.60;99.90;;;;;;5112212;28;20946;-70
2022/10/31 00:11:20;;;;;;;5.63;1.73;;;11.70;99.90;;;;;;5111709;28;20553;-70
2022/10/31 00:13:47;;;;;;;2.70;2.03;;;11.60;99.90;;;;;;5111659;28;20458;-70
2022/10/31 00:16:16;;;;;;;2.97;2.00;;;11.50;99.90;;;;;;5111440;28;20452;-69
2022/10/31 00:18:43;;;;;;;2.73;1.93;;;11.50;99.90;;;;;;5112366;28;20462;-69
2022/10/31 00:21:10;;;;;;;2.37;2.00;;;11.50;99.90;;;;;;5111545;28;20461;-69
2022/10/31 00:23:37;;;;;;;4.37;2.10;;;11.50;99.90;;;;;;5111943;28;20481;-70
2022/10/31 00:26:05;;;;;;;3.60;1.83;;;11.50;99.90;;;;;;5111449;28;20454;-69
2022/10/31 00:28:32;;;;;;;5.70;2.13;;;11.40;99.90;;;;;;5111703;28;20497;-70
2022/10/31 00:31:02;;;;;;;4.00;2.00;;;11.40;99.90;;;;;;5111943;28;20449;-70
2022/10/31 00:33:30;;;;;;;3.40;2.17;;;11.40;99.90;;;;;;5111445;28;20451;-69
2022/10/31 00:35:57;;;;;;;3.37;2.23;;;11.40;99.90;;;;;;5111641;28;20961;-70
2022/10/31 00:38:24;;;;;;;4.13;1.80;;;11.40;99.90;;;;;;5111458;28;20823;-70
2022/10/31 00:40:50;;;;;;;2.60;1.50;;;11.30;99.90;;;;;;5111551;28;20448;-69
2022/10/31 00:43:17;;;;;;;9.03;2.00;;;11.40;99.90;;;;;;5110566;28;20479;-70
2022/10/31 00:45:44;;;;;;;2.53;1.90;;;11.50;99.90;;;;;;5111633;28;20817;-70
2022/10/31 00:48:11;;;;;;;2.87;2.30;;;11.40;99.90;;;;;;5110827;28;20454;-69
2022/10/31 00:50:40;;;;;;;2.90;1.40;;;11.30;99.90;;;;;;5111505;28;20489;-70
2022/10/31 00:53:08;;;;;;;2.73;2.13;;;11.30;99.90;;;;;;5110583;28;20475;-69
2022/10/31 00:55:34;;;;;;;3.40;2.30;;;11.30;99.90;;;;;;5111244;28;20446;-69
2022/10/31 00:58:01;;;;;;;2.73;1.90;;;11.30;99.90;;;;;;5110763;28;20457;-69
2022/10/31 01:00:28;;;;;;;5.40;2.37;;;11.40;99.90;;;;;;5106790;28;20448;-69
2022/10/31 01:02:55;;;;;;;3.73;2.37;;;11.40;99.90;;;;;;5111205;28;20482;-69
2022/10/31 01:05:22;;;;;;;2.27;1.83;;;11.40;99.90;;;;;;5110628;28;20445;-70
2022/10/31 01:07:50;;;;;;;6.03;3.83;;;11.30;99.90;;;;;;5111172;28;20483;-69
2022/10/31 01:10:18;;;;;;;2.53;1.77;;;11.40;99.90;;;;;;5110720;28;20446;-69
2022/10/31 01:12:47;;;;;;;5.00;2.70;;;11.40;99.90;;;;;;5111317;28;20494;-69
2022/10/31 01:15:16;;;;;;;3.83;2.53;;;11.30;99.90;;;;;;5110205;28;20448;-69
2022/10/31 01:17:42;;;;;;;3.60;1.90;;;11.40;99.90;;;;;;5110929;28;20474;-69
2022/10/31 01:20:11;;;;;;;3.20;2.10;;;11.40;99.90;;;;;;5110995;28;20558;-70
2022/10/31 01:22:38;;;;;;;3.17;1.80;;;11.40;99.90;;;;;;5111271;28;20833;-69
2022/10/31 01:25:09;;;;;;;4.43;2.17;;;11.40;99.90;;;;;;5110573;28;20459;-70
2022/10/31 01:27:35;;;;;;;4.93;2.00;;;11.30;99.90;;;;;;5111251;28;20786;-70
2022/10/31 01:30:02;;;;;;;3.63;1.70;;;11.30;99.90;;;;;;5110784;28;20446;-69
2022/10/31 01:32:29;;;;;;;5.50;2.20;;;11.40;99.90;;;;;;5111323;28;20447;-70
2022/10/31 01:34:56;;;;;;;2.23;1.90;;;11.40;99.90;;;;;;5111246;28;20460;-69
2022/10/31 01:37:23;;;;;;;2.60;1.70;;;11.40;99.90;;;;;;5110478;28;20450;-69
2022/10/31 01:39:50;;;;;;;2.60;1.77;;;11.40;99.90;;;;;;5110853;28;20439;-70
2022/10/31 01:42:20;;;;;;;2.43;1.70;;;11.40;99.90;;;;;;5110643;28;20454;-70
2022/10/31 01:44:58;;;;;;;3.33;1.97;;;11.30;99.90;;;;;;5102457;28;20802;-70
2022/10/31 01:47:35;;;;;;;2.10;1.50;;;11.40;99.90;;;;;;5110249;28;20453;-69
2022/10/31 01:50:06;;;;;;;6.37;2.40;;;11.30;99.90;;;;;;5104016;28;21015;-68
2022/10/31 01:52:37;;;;;;;6.67;2.20;;;11.30;99.90;;;;;;5110816;28;20453;-69
2022/10/31 01:55:06;;;;;;;5.13;2.30;;;11.30;99.90;;;;;;5110148;28;20443;-68
2022/10/31 01:57:36;;;;;;;2.13;1.93;;;11.40;99.90;;;;;;5114738;28;20810;-69
2022/10/31 02:00:07;;;;;;;3.37;2.20;;;11.30;99.90;;;;;;5114132;28;20443;-69
2022/10/31 02:02:33;;;;;;;8.27;2.70;;;11.30;99.90;;;;;;5112315;28;20467;-69
2022/10/31 02:05:05;;;;;;;4.20;2.20;;;11.20;99.90;;;;;;5114214;28;20463;-68
2022/10/31 02:07:37;;;;;;;2.43;1.70;;;11.20;99.90;;;;;;5114574;28;20444;-69
2022/10/31 02:10:05;;;;;;;5.93;2.03;;;11.20;99.90;;;;;;5112676;28;20451;-69
2022/10/31 02:12:35;;;;;;;3.13;2.00;;;11.10;99.90;;;;;;5114529;28;20461;-69
2022/10/31 02:15:03;;;;;;;3.10;1.77;;;11.10;99.90;;;;;;5113226;28;20497;-68
2022/10/31 02:17:30;;;;;;;7.50;1.47;;;11.10;99.90;;;;;;5114703;28;20456;-69
2022/10/31 02:20:07;;;;;;;5.73;2.30;;;11.30;99.90;;;;;;5114440;27;20462;-69
2022/10/31 02:22:43;;;;;;;3.00;1.90;;;11.20;99.90;;;;;;5114019;28;20475;-69
2022/10/31 02:25:29;;;;;;;4.97;2.43;;;11.20;99.90;;;;;;5113987;28;20446;-69
2022/10/31 02:28:22;;;;;;;4.30;2.17;;;11.00;99.90;;;;;;5114174;28;20446;-69
2022/10/31 02:31:17;;;;;;;3.57;1.70;;;11.00;99.90;;;;;;5114220;28;20445;-70
2022/10/31 02:33:46;;;;;;;2.97;1.90;;;;;;;;;;5113553;28;20822;-69
2022/10/31 02:36:18;;;;;;;8.50;2.33;;;;;;;;;;5113229;28;20450;-69
2022/10/31 02:38:51;;;;;;;2.80;1.87;;;;;;;;;;5113972;28;20458;-69
2022/10/31 02:41:20;;;;;;;4.80;1.97;;;;;;;;;;5113543;28;20446;-69
2022/10/31 02:43:56;;;;;;;3.30;1.73;;;11.00;99.90;;;;;;5113668;28;20477;-69
2022/10/31 02:46:26;;;;;;;2.40;2.00;;;;;;;;;;5113242;28;20826;-69
2022/10/31 02:48:56;;;;;;;3.93;1.70;;;;;;;;;;5113445;28;20444;-69
2022/10/31 02:51:23;;;;;;;2.97;1.80;;;;;;;;;;5113322;28;20446;-69
2022/10/31 02:53:50;;;;;;;4.73;2.53;;;;;;;;;;5113452;28;20458;-69
2022/10/31 02:56:18;;;;;;;7.17;2.33;;;;;;;;;;5113278;28;20449;-69
2022/10/31 02:58:47;;;;;;;3.63;1.97;;;;;;;;;;5112986;28;20449;-69
2022/10/31 03:01:33;;;;;;;1.90;1.67;;;;;;;;;;5112863;28;20454;-69
2022/10/31 03:04:13;;;;;;;4.03;2.00;;;;;;;;;;5102536;28;20475;-69
2022/10/31 03:06:43;;;;;;;2.67;1.50;;;;;;;;;;5112855;28;20933;-69
2022/10/31 03:09:14;;;;;;;4.07;2.27;;;;;;;;;;5112706;28;20541;-69
2022/10/31 03:11:44;;;;;;;2.23;1.73;;;;;;;;;;5113592;28;20443;-69
2022/10/31 03:14:12;;;;;;;3.50;1.60;;;;;;;;;;5112641;28;20450;-69
2022/10/31 03:16:43;;;;;;;3.10;2.43;;;;;;;;;;5113298;28;20950;-69
2022/10/31 03:19:11;;;;;;;4.40;2.17;;;;;;;;;;5112651;28;20464;-68
2022/10/31 03:21:41;;;;;;;4.80;3.03;;;;;;;;;;5103355;28;20957;-69
2022/10/31 03:24:11;;;;;;;3.53;1.77;;;;;;;;;;5111843;28;20982;-69
2022/10/31 03:26:39;;;;;;;6.57;3.07;;;;;;;;;;5112904;28;20451;-69
2022/10/31 03:29:06;;;;;;;7.23;2.50;;;;;;;;;;5112059;28;20966;-69
2022/10/31 03:31:35;;;;;;;4.80;2.23;;;;;;;;;;5112486;28;20444;-69
2022/10/31 03:34:04;;;;;;;3.50;1.63;;;;;;;;;;5112069;28;20443;-69
2022/10/31 03:36:32;;;;;;;3.63;2.23;;;;;;;;;;5112762;28;20452;-69
2022/10/31 03:39:01;;;;;;;3.60;1.60;;;;;;;;;;5112704;28;20450;-69
2022/10/31 03:41:30;;;;;;;5.00;2.13;;;;;;;;;;5112694;28;20467;-70
2022/10/31 03:44:00;;;;;;;2.87;2.00;;;;;;;;;;5112491;28;20476;-69
2022/10/31 03:46:27;;;;;;;3.00;2.17;;;;;;;;;;5112674;28;20458;-69
2022/10/31 03:48:54;;;;;;;5.73;2.20;;;;;;;;;;5112201;28;20452;-69
2022/10/31 03:51:24;;;;;;;3.30;2.40;;;;;;;;;;5111972;28;20966;-69
2022/10/31 03:53:55;;;;;;;2.93;2.40;;;;;;;;;;5112178;28;20462;-69
2022/10/31 03:56:29;;;;;;;2.70;1.73;;;;;;;;;;5111265;28;20939;-69
2022/10/31 03:58:59;;;;;;;3.13;2.07;;;;;;;;;;5102032;28;20437;-69
2022/10/31 04:01:27;;;;;;;3.20;2.43;;;;;;;;;;5112389;28;20772;-69
2022/10/31 04:03:55;;;;;;;4.37;2.37;;;;;;;;;;5111789;28;21038;-69
2022/10/31 04:06:24;;;;;;;2.40;1.90;;;;;;;;;;5112010;28;20463;-69
2022/10/31 04:08:54;;;;;;;2.67;1.93;;;;;;;;;;5112005;28;20478;-69
2022/10/31 04:11:25;;;;;;;5.83;2.30;;;;;;;;;;5111522;28;20894;-69
2022/10/31 04:13:53;;;;;;;1.83;1.63;;;;;;;;;;5112046;28;20449;-69
2022/10/31 04:16:22;;;;;;;3.47;2.20;;;;;;;;;;5111133;28;20453;-69
2022/10/31 04:18:49;;;;;;;6.80;2.83;;;;;;;;;;5111129;28;20454;-69
2022/10/31 04:21:16;;;;;;;1.90;1.73;;;;;;;;;;5111447;28;20457;-68
2022/10/31 04:23:44;;;;;;;5.57;1.67;;;;;;;;;;5111126;28;20996;-69
2022/10/31 04:26:13;;;;;;;5.97;2.47;;;;;;;;;;5111131;28;20967;-68
2022/10/31 04:28:40;;;;;;;3.73;2.50;;;;;;;;;;5111948;28;20803;-69
2022/10/31 04:31:07;;;;;;;4.13;2.27;;;;;;;;;;5111028;28;20450;-69
2022/10/31 04:33:34;;;;;;;3.07;1.60;;;;;;;;;;5111501;28;20819;-69
2022/10/31 04:36:01;;;;;;;3.20;2.33;;;;;;;;;;5111125;28;20450;-68
2022/10/31 04:38:28;;;;;;;3.20;2.60;;;;;;;;;;5111567;28;20446;-69
2022/10/31 04:40:57;;;;;;;7.90;2.60;;;;;;;;;;5111640;28;20450;-69
2022/10/31 04:43:24;;;;;;;3.47;2.23;;;;;;;;;;5110774;28;20477;-69
2022/10/31 04:45:51;;;;;;;2.53;1.47;;;;;;;;;;5111758;28;20461;-69
2022/10/31 04:48:18;;;;;;;4.13;2.33;;;;;;;;;;5111049;28;20788;-69
2022/10/31 04:50:45;;;;;;;2.13;1.93;;;;;;;;;;5111448;28;20483;-69
2022/10/31 04:53:14;;;;;;;4.50;2.17;;;;;;;;;;5110367;28;20456;-69
2022/10/31 04:55:41;;;;;;;4.33;2.30;;;;;;;;;;5111456;28;20810;-69
2022/10/31 04:58:09;;;;;;;6.40;2.30;;;;;;;;;;5110781;28;20453;-68
2022/10/31 05:00:36;;;;;;;3.40;2.33;;;;;;;;;;5111432;28;20445;-69
2022/10/31 05:03:03;;;;;;;3.23;2.27;;;;;;;;;;5110412;28;20459;-69
2022/10/31 05:05:32;;;;;;;7.10;2.53;;;;;;;;;;5111451;28;20448;-69
2022/10/31 05:07:59;;;;;;;2.70;2.27;;;;;;;;;;5111409;28;20452;-69
2022/10/31 05:10:27;;;;;;;2.43;1.70;;;10.90;99.90;;;;;;5111715;28;20451;-72
2022/10/31 05:12:55;;;;;;;2.10;1.77;;;;;;;;;;5110981;28;20444;-71
2022/10/31 05:15:24;;;;;;;3.17;1.83;;;;;;;;;;5109548;28;20460;-71
2022/10/31 05:17:52;;;;;;;2.43;1.80;;;;;;;;;;5107886;28;20456;-71
2022/10/31 05:20:20;;;;;;;2.13;1.90;;;;;;;;;;5110727;28;20439;-70
2022/10/31 05:22:48;;;;;;;3.00;1.93;;;;;;;;;;5110610;28;20448;-71
2022/10/31 05:25:15;;;;;;;1.80;1.60;;;;;;;;;;5110500;28;21063;-71
2022/10/31 05:27:43;;;;;;;2.67;1.70;;;;;;;;;;5111324;28;20463;-70
2022/10/31 05:30:11;;;;;;;5.93;2.97;;;;;;;;;;5112750;28;20444;-70
2022/10/31 05:32:40;;;;;;;3.63;1.90;;;;;;;;;;5114526;28;20470;-71
2022/10/31 05:35:08;;;;;;;2.07;1.87;;;;;;;;;;5114654;28;20448;-70
2022/10/31 05:37:36;;;;;;;3.27;2.00;;;;;;;;;;5114845;28;20493;-70
2022/10/31 05:40:03;;;;;;;6.97;1.97;;;;;;;;;;5114654;28;20805;-70
2022/10/31 05:42:30;;;;;;;6.27;2.57;;;;;;;;;;5114517;28;20927;-71
2022/10/31 05:44:57;;;;;;;4.80;2.23;;;;;;;;;;5114690;28;20476;-70
2022/10/31 05:47:24;;;;;;;4.83;2.87;;;;;;;;;;5114813;28;20459;-71
2022/10/31 05:49:53;;;;;;;6.30;2.20;;;;;;;;;;5115150;28;20544;-71
2022/10/31 05:52:20;;;;;;;3.87;2.30;;;;;;;;;;5113778;28;20803;-70
2022/10/31 05:54:47;;;;;;;3.53;2.57;;;;;;;;;;5114611;28;20448;-71
2022/10/31 05:57:14;;;;;;;8.70;2.60;;;;;;;;;;5101068;28;20446;-70
2022/10/31 05:59:41;;;;;;;4.37;3.10;;;;;;;;;;5114789;28;20455;-70
2022/10/31 06:02:08;;;;;;;3.60;2.30;;;;;;;;;;5113716;28;20456;-70
2022/10/31 06:04:35;;;;;;;4.10;2.67;;;;;;;;;;5114098;28;20498;-70
2022/10/31 06:07:04;;;;;;;3.40;1.90;;;;;;;;;;5114180;28;20443;-70
2022/10/31 06:09:31;;;;;;;3.37;2.10;;;;;;;;;;5114326;28;20448;-70
2022/10/31 06:11:58;;;;;;;3.23;1.93;;;;;;;;;;5114694;28;20455;-70
2022/10/31 06:14:25;;;;;;;3.73;2.17;;;;;;;;;;5113409;28;20935;-70
2022/10/31 06:16:52;;;;;;;3.73;2.43;;;;;;;;;;5114342;28;20458;-72
2022/10/31 06:19:19;;;;;;;6.03;2.97;;;;;;;;;;5113559;28;20455;-70
2022/10/31 06:21:46;;;;;;;4.00;2.83;;;;;;;;;;5113833;28;20474;-70
2022/10/31 06:24:15;;;;;;;7.80;3.27;;;;;;;;;;5113490;28;20472;-69
2022/10/31 06:26:43;;;;;;;2.90;2.00;;;;;;;;;;5114261;28;20506;-70
2022/10/31 06:29:10;;;;;;;4.10;2.10;;;;;;;;;;5113155;28;20447;-70
2022/10/31 06:31:37;;;;;;;3.53;2.40;;;;;;;;;;5114164;28;20452;-70
2022/10/31 06:34:04;;;;;;;6.47;2.90;;;;;;;;;;5112838;28;20449;-70
2022/10/31 06:36:31;;;;;;;4.47;2.40;;;;;;;;;;5114221;28;20796;-70
2022/10/31 06:38:58;;;;;;;2.60;2.30;;;;;;;;;;5113527;28;20449;-70
2022/10/31 06:41:26;;;;;;;2.73;1.70;;;;;;;;;;5112773;28;20451;-70
2022/10/31 06:43:53;;;;;;;6.63;2.50;;;;;;;;;;5113292;28;20970;-70
2022/10/31 06:46:21;;;;;;;4.20;2.20;;;;;;;;;;5113138;28;20673;-70
2022/10/31 06:48:48;;;;;;;6.00;3.40;;;;;;;;;;5112948;28;20452;-71
2022/10/31 06:51:15;;;;;;;2.43;2.23;;;;;;;;;;5113196;28;20452;-70
2022/10/31 06:53:42;;;;;;;6.50;2.37;;;;;;;;;;5112626;28;20456;-70
2022/10/31 06:56:09;;;;;;;2.97;2.30;;;;;;;;;;5112774;28;20452;-70
2022/10/31 06:58:37;;;;;;;5.20;2.63;;;;;;;;;;5113633;28;20456;-70
2022/10/31 07:01:04;;;;;;;3.00;2.27;;;;;;;;;;5113381;28;20451;-71
2022/10/31 07:03:31;;;;;;;4.80;2.30;;;;;;;;;;5108218;28;20952;-70
2022/10/31 07:05:59;;;;;;;5.03;2.80;;;;;;;;;;5105238;28;20485;-71
2022/10/31 07:08:26;;;;;;;2.40;2.10;;;;;;;;;;5107529;28;20863;-70
2022/10/31 07:10:54;;;;;;;10.10;3.80;;;;;;;;;;5105693;28;20449;-70
2022/10/31 07:13:24;;;;;;;5.00;2.43;;;;;;;;;;5112598;28;20992;-71
2022/10/31 07:15:53;;;;;;;4.53;2.00;;;;;;;;;;5111781;28;20457;-70
2022/10/31 07:18:20;;;;;;;3.83;2.20;;;;;;;;;;5112262;28;20449;-70
2022/10/31 07:20:48;;;;;;;4.60;3.23;;;;;;;;;;5113194;28;20504;-72
2022/10/31 07:23:15;;;;;;;3.30;2.27;;;;;;;;;;5111416;28;20462;-73
2022/10/31 07:25:42;;;;;;;4.03;2.40;;;;;;;;;;5112961;28;20478;-71
2022/10/31 07:28:09;;;;;;;4.63;2.23;;;;;;;;;;5098987;28;20446;-72
2022/10/31 07:30:37;;;;;;;3.10;2.60;;;;;;;;;;5113286;28;20461;-72
2022/10/31 07:33:06;;;;;;;4.10;2.00;;;;;;;;;;5109796;28;20438;-71
2022/10/31 07:35:34;;;;;;;3.30;2.40;;;;;;;;;;5112933;28;20458;-71
2022/10/31 07:38:08;;;;;;;4.13;2.23;;;;;;;;;;5111910;28;20447;-72
2022/10/31 07:40:35;;;;;;;4.40;2.00;;;;;;;;;;5113146;28;20842;-74
2022/10/31 07:43:02;;;;;;;5.63;2.97;;;;;;;;;;5116903;28;20460;-76
2022/10/31 07:45:29;;;;;;;6.10;2.50;;;;;;;;;;5114331;28;20502;-75
2022/10/31 07:47:56;;;;;;;3.03;1.80;;;;;;;;;;5111827;28;20452;-74
2022/10/31 07:50:25;;;;;;;5.87;3.00;;;;;;;;;;5112167;28;20470;-74
2022/10/31 07:52:59;;;;;;;6.23;3.67;;;;;;;;;;5111459;28;20797;-74
2022/10/31 07:55:26;;;;;;;6.57;3.10;;;;;;;;;;5108537;28;20466;-72
2022/10/31 07:57:57;;;;;;;4.60;2.90;;;;;;;;;;5109820;28;20455;-73
2022/10/31 08:00:24;;;;;;;7.90;2.70;;;;;;;;;;5109215;28;20462;-73
2022/10/31 08:02:58;;;;;;;6.43;2.93;;;;;;;;;;5107323;27;20455;-74
2022/10/31 08:05:26;;;;;;;3.40;2.50;;;;;;;;;;5108430;28;20499;-70
2022/10/31 08:07:54;;;;;;;2.23;2.03;;;;;;;;;;5104115;28;20817;-69
2022/10/31 08:10:21;;;;;;;4.27;2.60;;;;;;;;;;5104249;28;20925;-69
2022/10/31 08:12:48;;;;;;;3.50;2.60;;;;;;;;;;5109396;28;20900;-69
2022/10/31 08:15:15;;;;;;;3.97;2.60;;;;;;;;;;5108147;28;20455;-72
2022/10/31 08:17:42;;;;;;;6.40;2.97;;;;;;;;;;5109762;28;20467;-72
2022/10/31 08:20:10;;;;;;;4.03;2.43;;;;;;;;;;5109038;28;20436;-72
2022/10/31 08:22:38;;;;;;;7.80;2.97;;;;;;;;;;5110159;28;20459;-72
2022/10/31 08:25:06;;;;;;;3.47;2.43;;;;;;;;;;5099124;28;20483;-72
2022/10/31 08:27:33;;;;;;;4.40;2.57;;;;;;;;;;5109433;28;20939;-72
2022/10/31 08:30:00;;;;;;;5.40;3.17;;;;;;;;;;5109667;28;20436;-72
2022/10/31 08:32:27;;;;;;;7.93;3.63;;;;;;;;;;5100101;28;20826;-72
2022/10/31 08:34:54;;;;;;;6.17;3.00;;;;;;;;;;5109514;28;20459;-72
2022/10/31 08:37:21;;;;;;;5.60;3.60;;;;;;;;;;5108510;28;20444;-75
2022/10/31 08:39:50;;;;;;;6.20;3.70;;;;;;;;;;5109144;28;20456;-72
2022/10/31 08:42:17;;;;;;;5.40;3.83;;;;;;;;;;5105123;28;20890;-71
2022/10/31 08:44:44;;;;;;;5.67;3.30;;;;;;;;;;5108047;28;20479;-71
2022/10/31 08:47:11;;;;;;;8.50;2.87;;;;;;;;;;5106622;28;20459;-71
2022/10/31 08:49:38;;;;;;;7.23;3.33;;;;;;;;;;5099088;28;21884;-71
2022/10/31 08:52:05;;;;;;;4.90;3.30;;;;;;;;;;5101800;28;20973;-72
2022/10/31 08:54:33;;;;;;;7.00;2.90;;;;;;;;;;5105805;28;20454;-72
2022/10/31 08:57:01;;;;;;;8.93;3.27;;;;;;;;;;5104632;28;20973;-72
2022/10/31 08:59:28;;;;;;;4.73;2.73;;;;;;;;;;5105892;28;20453;-73
2022/10/31 09:01:55;;;;;;;4.77;3.27;;;;;;;;;;5103338;28;20453;-73
2022/10/31 09:04:22;;;;;;;5.60;3.87;;;;;;;;;;5103356;28;20448;-72
2022/10/31 09:06:49;;;;;;;5.93;3.50;;;;;;;;;;5109725;28;20444;-73
2022/10/31 09:09:16;;;;;;;6.13;3.10;;;;;;;;;;5109633;28;20483;-73
2022/10/31 09:11:44;;;;;;;4.60;3.00;;;;;;;;;;5104996;28;20451;-72
2022/10/31 09:14:12;;;;;;;3.70;3.20;;;;;;;;;;5112011;28;20440;-73
2022/10/31 09:16:39;;;;;;;5.60;3.83;;;;;;;;;;5112264;28;20922;-73
2022/10/31 09:19:06;;;;;;;6.87;3.93;;;;;;;;;;5110553;28;20804;-70
2022/10/31 09:21:33;;;;;;;6.17;3.53;;;;;;;;;;5112560;28;20450;-70
2022/10/31 09:24:00;;;;;;;5.87;3.27;;;;;;;;;;5112442;28;20454;-71
2022/10/31 09:26:27;;;;;;;6.87;4.00;;;;;;;;;;5106099;28;20481;-72
2022/10/31 09:28:55;;;;;;;10.73;3.17;;;;;;;;;;5106024;28;20450;-71
2022/10/31 09:31:23;;;;;;;12.03;3.80;;;;;;;;;;5098784;28;20454;-71
2022/10/31 09:33:50;;;;;;;6.20;3.60;;;;;;;;;;5109723;28;20440;-72
2022/10/31 09:36:17;;;;;;;7.67;4.27;;;;;;;;;;5108782;28;20456;-71
2022/10/31 09:38:44;;;;;;;4.83;3.63;;;;;;;;;;5110894;28;20466;-72
2022/10/31 09:41:17;;;;;;;7.00;3.40;;;;;;;;;;5111181;28;20448;-72
2022/10/31 09:43:46;;;;;;;5.30;3.67;;;;;;;;;;5110857;28;20450;-72
2022/10/31 09:46:17;;;;;;;5.47;4.03;;;;;;;;;;5109681;28;20499;-72
2022/10/31 09:48:56;;;;;;;5.03;3.73;;;;;;;;;;5108213;28;20934;-72
2022/10/31 09:51:25;;;;;;;5.53;3.60;;;;;;;;;;5110947;28;20454;-72
2022/10/31 09:53:55;;;;;;;6.50;4.17;;;;;;;;;;5110878;28;20444;-73
2022/10/31 09:56:23;;;;;;;4.07;3.20;;;;;;;;;;5111451;28;20462;-74
2022/10/31 09:58:53;;;;;;;4.83;4.00;;;;;;;;;;5110467;28;20811;-74
2022/10/31 10:01:35;;;;;;;4.70;3.90;;;;;;;;;;5110505;28;20536;-69
2022/10/31 10:04:06;;;;;;;4.23;3.40;;;;;;;;;;5108947;28;20460;-70
2022/10/31 10:06:35;;;;;;;6.70;4.17;;;;;;;;;;5103043;28;20798;-70
2022/10/31 10:09:02;;;;;;;7.23;3.63;;;;;;;;;;5111674;28;20451;-70
2022/10/31 10:11:41;;;;;;;4.77;3.60;;;;;;;;;;5104400;28;20450;-73
2022/10/31 10:14:15;;;;;;;6.87;3.20;;;;;;;;;;5104317;28;20447;-73
2022/10/31 10:16:50;;;;;;;8.60;4.87;;;;;;;;;;5104314;28;20459;-72
2022/10/31 10:19:24;;;;;;;9.10;3.70;;;;;;;;;;5110437;28;20443;-72
2022/10/31 10:21:54;;;;;;;7.77;4.17;;;;;;;;;;5111525;28;20897;-73
2022/10/31 10:24:28;;;;;;;15.57;4.80;;;;;;;;;;5111404;28;20452;-73
2022/10/31 10:26:59;;;;;;;6.03;4.20;;;;;;;;;;5111816;28;20472;-72
2022/10/31 10:29:31;;;;;;;4.30;3.70;;;;;;;;;;5109566;28;20443;-77
2022/10/31 10:32:00;;;;;;;10.13;3.77;;;;;;;;;;5110975;28;20451;-72
2022/10/31 10:34:31;;;;;;;7.80;4.57;;;;;;;;;;5111474;28;20451;-72
2022/10/31 10:37:02;;;;;;;6.23;3.83;;;;;;;;;;5108552;28;20712;-73
2022/10/31 10:39:31;;;;;;;9.20;4.50;;;;;;;;;;5112171;28;20631;-73
2022/10/31 10:47:41;;;;;;;8.27;4.30;;;;;;;;;;5023987;28;20477;-73
2022/10/31 10:50:12;;;;;;;5.67;4.57;;;;;;;;;;5097658;28;20483;-73
2022/10/31 10:52:44;;;;;;;5.30;4.33;;;;;;;;;;5111159;28;20867;-73
2022/10/31 10:55:18;;;;;;;4.53;3.57;;;;;;;;;;5107396;28;20432;-72
2022/10/31 10:57:53;;;;;;;4.53;3.47;;;;;;;;;;5110729;28;20970;-73
2022/10/31 11:00:22;;;;;;;6.07;4.70;;;;;;;;;;5110526;28;20801;-73
2022/10/31 11:02:49;;;;;;;7.77;3.73;;;;;;;;;;5110867;28;20753;-73
2022/10/31 11:05:22;;;;;;;5.90;4.07;;;;;;;;;;5109601;28;20503;-72
2022/10/31 11:07:50;;;;;;;8.77;4.30;;;;;;;;;;5110520;28;20436;-74
2022/10/31 11:10:17;;;;;;;6.50;4.10;;;;;;;;;;5106989;28;20916;-73
2022/10/31 11:12:45;;;;;;;6.73;3.93;;;;;;;;;;5103674;28;20440;-73
2022/10/31 11:15:19;;;;;;;6.20;4.20;;;;;;;;;;5109794;28;20810;-73
2022/10/31 11:17:49;;;;;;;7.63;4.20;;;;;;;;;;5110304;28;20447;-74
2022/10/31 11:20:31;;;;;;;6.40;3.30;;;;;;;;;;5109847;28;20455;-74
2022/10/31 11:23:03;;;;;;;6.57;3.60;;;;;;;;;;5108515;28;20447;-74
2022/10/31 11:25:30;;;;;;;8.80;4.93;;;;;;;;;;5110278;28;20527;-73
2022/10/31 11:28:00;;;;;;;8.93;4.17;;;;;;;;;;5110150;28;20962;-74
2022/10/31 11:30:28;;;;;;;4.70;4.00;;;;;;;;;;5110298;28;20465;-74
2022/10/31 11:32:55;;;;;;;6.00;3.53;;;;;;;;;;5109841;28;21015;-74
2022/10/31 11:35:24;;;;;;;9.40;4.40;;;;;;;;;;5109360;28;20452;-73
2022/10/31 11:37:54;;;;;;;7.83;3.77;;;;;;;;;;5108002;28;20537;-74
2022/10/31 11:40:22;;;;;;;7.87;3.73;;;;;;;;;;5109597;28;21104;-74
2022/10/31 11:42:51;;;;;;;6.57;4.37;;;;;;;;;;5109894;28;20463;-74
2022/10/31 11:45:20;;;;;;;4.90;3.17;;;;;;;;;;5109108;28;20456;-74
2022/10/31 11:47:49;;;;;;;4.77;3.93;;;;;;;;;;5110608;28;20794;-75
2022/10/31 11:50:20;;;;;;;5.13;3.70;;;;;;;;;;5112564;28;20476;-77
2022/10/31 11:52:47;;;;;;;4.67;3.50;;;10.10;99.90;;;;;;5114589;28;20446;-74
2022/10/31 11:55:32;;;;;;;6.50;4.20;;;18.00;1.00;;;;;;5111299;28;20452;-74
2022/10/31 11:57:59;;;;;;;6.17;3.43;;;17.90;1.00;;;;;;5102295;28;20443;-74
2022/10/31 12:00:29;;;;;;;8.20;3.27;;;17.90;1.00;;;;;;5109490;28;20548;-75
2022/10/31 12:03:11;;;;;;;5.93;4.20;;;18.00;99.90;;;;;;5108059;28;20540;-74
2022/10/31 12:05:40;;;;;;;5.40;4.27;;;18.00;99.90;;;;;;5100567;28;20478;-74
2022/10/31 12:08:08;;;;;;;4.70;4.17;;;18.10;24.40;;;;;;5111586;28;20447;-74
2022/10/31 12:10:48;;;;;;;7.13;4.40;;;18.00;1.00;;;;;;5111400;28;20934;-75
2022/10/31 12:13:31;;;;;;;3.87;3.50;;;18.00;1.00;;;;;;5110474;28;20805;-75
2022/10/31 12:16:06;;;;;;;4.20;3.80;;;18.10;1.00;;;;;;5111765;28;20482;-74
2022/10/31 12:18:47;;;;;;;6.43;3.83;;;18.10;1.00;;;;;;5111141;28;20440;-73
2022/10/31 12:21:23;;;;;;;5.97;3.80;;;18.30;1.00;;;;;;5111688;28;20436;-71
2022/10/31 12:24:03;;;;;;;8.00;3.70;;;18.40;99.90;;;;;;5103169;28;20448;-74
2022/10/31 12:26:39;;;;;;;6.10;3.60;;;18.40;99.90;;;;;;5110316;28;20468;-76
2022/10/31 12:29:30;;;;;;;6.13;4.53;;;18.60;99.90;;;;;;5110823;28;20439;-72
2022/10/31 12:32:13;;;;;;;4.70;4.00;;;18.60;1.00;;;;;;5095125;28;20457;-72
2022/10/31 12:35:11;;;;;;;5.43;4.63;;;18.50;99.90;;;;;;5106702;28;20455;-72
2022/10/31 12:37:49;;;;;;;6.63;5.30;;;18.40;99.90;;;;;;5106671;28;20452;-72
2022/10/31 12:40:38;;;;;;;6.17;4.63;;;18.30;99.90;;;;;;5107869;28;20451;-72
2022/10/31 12:43:30;;;;;;;8.57;4.90;;;18.20;1.00;;;;;;5097748;28;20450;-72
2022/10/31 12:45:58;;;;;;;11.70;6.17;;;18.20;99.90;;;;;;5108704;28;20483;-72
2022/10/31 12:48:49;;;;;;;7.77;4.60;;;18.10;99.90;;;;;;5105934;28;21313;-73
2022/10/31 12:51:23;;;;;;;8.53;4.43;;;18.10;99.90;;;;;;5106402;28;20444;-71
2022/10/31 12:54:04;;;;;;;7.57;5.30;;;18.10;99.90;;;;;;5105219;28;20448;-70
2022/10/31 12:56:42;;;;;;;7.17;5.50;;;18.00;99.90;;;;;;5107615;28;20452;-70
2022/10/31 12:59:18;;;;;;;12.23;5.60;;;18.00;1.00;;;;;;5104349;28;20440;-70
2022/10/31 13:01:50;;;;;;;5.97;4.67;;;18.00;1.00;;;;;;5106687;28;20450;-70
2022/10/31 13:04:23;;;;;;;7.13;5.07;;;18.10;1.00;;;;;;5103498;28;20436;-71
2022/10/31 13:06:54;;;;;;;9.43;6.13;;;18.00;1.00;;;;;;5107063;28;20463;-74
2022/10/31 13:09:27;;;;;;;7.07;4.27;;;17.90;1.00;;;;;;5108669;28;20486;-73
2022/10/31 13:11:58;;;;;;;6.17;4.30;;;17.90;1.00;;;;;;5107504;28;20519;-74
2022/10/31 13:14:30;;;;;;;7.90;4.93;;;18.00;1.00;;;;;;5107828;28;20456;-72
2022/10/31 13:16:59;;;;;;;6.90;4.20;;;17.90;1.00;;;;;;5108472;28;20464;-71
2022/10/31 13:19:34;;;;;;;5.83;4.23;;;18.00;1.00;;;;;;5108259;28;20544;-70
2022/10/31 13:22:06;;;;;;;6.70;3.93;;;18.00;1.00;;;;;;5105456;28;20450;-69
2022/10/31 13:24:37;;;;;;;6.80;4.77;;;17.90;1.00;;;;;;5100907;28;20475;-70
2022/10/31 13:27:13;;;;;;;4.90;4.40;;;18.00;1.00;;;;;;5105256;28;20468;-71
2022/10/31 13:29:51;;;;;;;4.63;4.10;;;18.00;1.00;;;;;;5106865;28;20435;-70
2022/10/31 13:32:18;;;;;;;7.90;5.10;;;18.10;27.50;;;;;;5102175;28;20443;-71
2022/10/31 13:34:51;;;;;;;5.87;4.03;;;18.10;72.00;;;;;;5108716;28;20801;-70
2022/10/31 13:37:26;;;;;;;6.50;4.40;;;18.30;1.00;;;;;;5108305;28;20443;-70
2022/10/31 13:40:06;;;;;;;5.90;4.43;;;18.40;1.00;;;;;;5108777;28;20442;-71
2022/10/31 13:42:52;;;;;;;8.13;4.40;;;19.00;99.90;;;;;;5108166;28;20945;-71
2022/10/31 13:45:22;;;;;;;6.83;3.70;;;19.60;25.60;;;;;;5107521;28;20456;-70
2022/10/31 13:48:00;;;;;;;10.73;4.27;;;19.60;1.00;;;;;;5108376;28;20971;-71
2022/10/31 13:50:29;;;;;;;6.00;4.13;;;19.30;1.00;;;;;;5107011;28;20508;-72
2022/10/31 13:53:12;;;;;;;8.27;4.80;;;19.50;1.00;;;;;;5106914;28;20452;-72
2022/10/31 13:55:42;;;;;;;6.70;4.07;;;19.10;1.00;;;;;;5110293;28;20443;-73
2022/10/31 13:58:24;;;;;;;6.20;3.87;;;19.10;1.00;;;;;;5112064;28;20452;-73
2022/10/31 14:01:13;;;;;;;8.13;4.50;;;19.10;16.40;;;;;;5112250;28;20823;-73
2022/10/31 14:03:41;;;;;;;6.00;4.60;;;18.90;34.20;;;;;;5112140;28;20530;-72
2022/10/31 14:06:10;;;;;;;5.97;4.40;;;18.90;99.90;;;;;;5111200;28;20506;-72
2022/10/31 14:08:40;;;;;;;9.67;4.37;;;18.80;99.90;;;;;;5110149;28;20435;-72
2022/10/31 14:11:09;;;;;;;5.10;3.80;;;18.90;99.90;;;;;;5111790;28;20982;-72
2022/10/31 14:13:41;;;;;;;8.10;4.67;;;18.80;99.90;;;;;;5104653;28;20447;-72
2022/10/31 14:16:21;;;;;;;5.23;4.47;;;18.80;99.90;;;;;;5111360;28;20459;-72
2022/10/31 14:18:52;;;;;;;7.90;4.13;;;18.80;99.90;;;;;;5111691;28;20447;-74
2022/10/31 14:21:29;;;;;;;5.33;4.03;;;18.80;99.90;;;;;;5109188;28;20448;-74